Time;durP1;ratioP1;P1;durP2;ratioP2;P2;SDS_P1;SDS_P2;PMS_P1;PMS_P2;Temp;Humidity;BMP_temperature;BMP_pressure;BME280_temperature;BME280_humidity;BME280_pressure;Samples;Min_cycle;Max_cycle;Signal;HPM_P1;HPM_P2
2021/01/13 00:01:39;;;;;;;10.27;6.75;;;1.60;85.40;;;-0.29;86.47;95738.53;5007054;28;20372;-68
2021/01/13 00:04:05;;;;;;;8.43;6.25;;;1.40;85.50;;;-0.33;86.34;95743.13;5008723;28;20108;-68
2021/01/13 00:06:32;;;;;;;11.00;6.57;;;1.50;85.10;;;-0.37;86.83;95741.78;5032636;28;20037;-68
2021/01/13 00:08:58;;;;;;;9.52;6.80;;;1.40;85.10;;;-0.39;86.21;95748.03;5007716;28;20034;-68
2021/01/13 00:11:24;;;;;;;9.35;6.13;;;1.40;85.10;;;-0.42;86.03;95745.69;5002806;28;20555;-68
2021/01/13 00:13:49;;;;;;;7.97;6.03;;;1.40;84.90;;;-0.44;86.39;95761.34;5007415;28;20137;-68
2021/01/13 00:16:15;;;;;;;9.77;5.95;;;1.40;84.60;;;-0.48;86.51;95759.13;5038710;28;20041;-68
2021/01/13 00:18:41;;;;;;;10.50;6.60;;;1.40;84.90;;;-0.51;86.07;95761.97;5005579;28;20026;-69
2021/01/13 00:21:16;;;;;;;9.57;6.82;;;1.40;85.10;;;-0.54;86.46;95762.22;5005901;28;20037;-68
2021/01/13 00:23:51;;;;;;;9.48;6.40;;;1.40;84.80;;;-0.58;86.81;95774.59;5002786;28;20030;-66
2021/01/13 00:26:25;;;;;;;10.00;6.35;;;1.30;85.00;;;-0.61;86.58;95780.00;5004202;28;20080;-69
2021/01/13 00:28:51;;;;;;;11.65;7.47;;;1.20;85.30;;;-0.65;86.20;95781.22;5004605;28;20513;-70
2021/01/13 00:31:17;;;;;;;10.93;6.78;;;1.20;85.30;;;-0.69;86.53;95780.63;5006308;28;20109;-67
2021/01/13 00:33:47;;;;;;;11.00;7.20;;;1.20;85.50;;;-0.69;86.52;95785.78;5006112;28;20900;-68
2021/01/13 00:36:23;;;;;;;9.35;6.72;;;1.20;85.40;;;-0.71;86.71;95790.28;5006556;28;20026;-68
2021/01/13 00:38:49;;;;;;;10.70;7.15;;;1.20;85.20;;;-0.75;86.60;95788.91;5007523;28;20030;-66
2021/01/13 00:41:15;;;;;;;10.27;7.03;;;1.20;85.40;;;-0.76;86.58;95789.84;5006210;28;20038;-66
2021/01/13 00:43:41;;;;;;;12.18;7.40;;;1.20;85.50;;;-0.77;86.53;95797.72;5007628;28;20191;-68
2021/01/13 00:46:07;;;;;;;11.98;7.13;;;1.20;85.20;;;-0.79;86.56;95795.25;5005613;28;20050;-69
2021/01/13 00:48:32;;;;;;;11.90;7.55;;;1.20;85.10;;;-0.79;86.48;95795.25;5004007;28;20025;-69
2021/01/13 00:50:59;;;;;;;11.02;7.28;;;1.20;85.10;;;-0.79;86.65;95800.44;5005576;28;20096;-69
2021/01/13 00:53:25;;;;;;;10.63;7.45;;;1.20;85.00;;;-0.80;86.51;95803.97;5014279;28;20105;-68
2021/01/13 00:55:50;;;;;;;10.90;7.15;;;1.20;85.30;;;-0.80;86.54;95806.53;5005720;28;20534;-66
2021/01/13 00:58:16;;;;;;;10.48;7.25;;;1.30;85.00;;;-0.83;86.29;95798.22;5005138;28;20478;-67
2021/01/13 01:00:42;;;;;;;10.98;7.30;;;1.30;84.90;;;-0.78;86.57;95807.22;5005170;28;20100;-68
2021/01/13 01:03:07;;;;;;;12.45;7.38;;;1.30;84.90;;;-0.78;86.67;95812.41;5004635;28;20121;-67
2021/01/13 01:05:33;;;;;;;11.30;7.57;;;1.30;85.00;;;-0.81;86.56;95812.66;5008567;28;20068;-68
2021/01/13 01:07:59;;;;;;;11.00;7.22;;;1.20;85.10;;;-0.74;86.70;95828.44;5003214;28;20109;-69
2021/01/13 01:10:32;;;;;;;14.75;7.20;;;1.40;85.00;;;-0.74;87.01;95829.25;5006385;28;20037;-66
2021/01/13 01:12:58;;;;;;;11.85;7.22;;;1.40;84.90;;;-0.71;86.80;95831.59;5002777;28;20084;-68
2021/01/13 01:15:24;;;;;;;10.48;7.05;;;1.40;84.90;;;-0.70;86.36;95840.16;5022559;28;20486;-63
2021/01/13 01:17:50;;;;;;;15.75;9.48;;;1.40;84.70;;;-0.71;86.51;95836.75;5004233;28;20125;-64
2021/01/13 01:20:16;;;;;;;16.08;9.82;;;1.40;84.70;;;-0.71;86.38;95833.34;5007710;28;20120;-65
2021/01/13 01:22:55;;;;;;;12.82;7.65;;;1.40;84.60;;;-0.72;86.59;95837.72;5006870;28;20464;-63
2021/01/13 01:25:21;;;;;;;14.23;7.30;;;1.40;84.50;;;-0.73;86.37;95841.22;5007778;28;20065;-64
2021/01/13 01:27:51;;;;;;;13.50;7.32;;;1.30;84.50;;;-0.74;86.47;95838.78;5008031;28;20025;-64
2021/01/13 01:30:17;;;;;;;10.35;6.57;;;1.30;84.40;;;-0.77;86.17;95834.69;5006361;28;20037;-66
2021/01/13 01:32:43;;;;;;;10.30;6.93;;;1.30;84.40;;;-0.79;86.06;95841.75;5007790;28;20365;-65
2021/01/13 01:35:09;;;;;;;11.68;7.53;;;1.20;84.40;;;-0.82;86.12;95839.41;5007366;28;20037;-69
2021/01/13 01:37:36;;;;;;;11.32;7.15;;;1.10;84.40;;;-0.84;86.31;95846.47;5005952;28;20766;-70
2021/01/13 01:40:03;;;;;;;10.63;7.03;;;1.10;84.80;;;-0.87;86.24;95838.16;5007913;28;20159;-70
2021/01/13 01:42:29;;;;;;;10.35;7.30;;;1.20;84.50;;;-0.91;86.33;95837.56;4986838;28;20118;-70
2021/01/13 01:44:55;;;;;;;11.68;6.93;;;1.10;84.50;;;-0.94;86.29;95838.63;5003317;28;20414;-70
2021/01/13 01:47:59;;;;;;;10.48;7.07;;;1.10;84.70;;;-0.98;86.60;95845.00;4997766;28;20034;-70
2021/01/13 01:50:35;;;;;;;12.73;7.43;;;1.10;84.70;;;-1.00;86.76;95854.63;4986981;28;20038;-70
2021/01/13 01:53:25;;;;;;;9.43;6.55;;;1.00;84.80;;;-1.04;86.15;95865.34;4964678;28;20052;-70
2021/01/13 01:56:06;;;;;;;12.88;7.18;;;0.90;85.10;;;-1.10;86.96;95866.66;5008559;28;20358;-70
2021/01/13 01:58:32;;;;;;;11.97;7.40;;;0.80;85.40;;;-1.13;86.20;95866.06;5007633;28;20145;-70
2021/01/13 02:01:02;;;;;;;11.55;7.07;;;0.80;85.40;;;-1.14;86.73;95867.00;5007386;28;20064;-70
2021/01/13 02:03:48;;;;;;;13.80;7.57;;;0.70;85.50;;;-1.17;86.98;95870.66;5007850;28;20587;-70
2021/01/13 02:06:17;;;;;;;11.90;7.28;;;0.80;85.70;;;-1.16;86.81;95868.88;5008134;28;20038;-71
2021/01/13 02:08:44;;;;;;;11.50;7.80;;;0.80;86.10;;;-1.13;86.77;95868.63;5007637;28;20054;-70
2021/01/13 02:11:17;;;;;;;12.32;7.63;;;0.80;85.90;;;-1.12;87.24;95870.31;4998995;28;20445;-70
2021/01/13 02:13:44;;;;;;;12.52;7.13;;;0.90;85.90;;;-1.09;86.81;95872.63;5032337;28;20054;-71
2021/01/13 02:16:11;;;;;;;15.85;7.70;;;0.90;85.80;;;-1.08;86.61;95869.13;5006487;28;20111;-70
2021/01/13 02:18:36;;;;;;;12.50;7.55;;;0.90;85.80;;;-1.07;86.75;95873.31;5007448;28;20131;-71
2021/01/13 02:21:03;;;;;;;11.90;7.47;;;0.90;85.80;;;-1.09;86.81;95868.28;4989969;28;20048;-70
2021/01/13 02:23:35;;;;;;;13.23;7.75;;;0.90;86.00;;;-1.09;86.78;95868.28;5007705;28;20034;-70
2021/01/13 02:26:34;;;;;;;12.93;7.80;;;0.90;85.60;;;-1.08;87.23;95876.84;4990145;28;20037;-70
2021/01/13 02:29:06;;;;;;;12.98;6.85;;;0.90;85.60;;;-1.09;86.87;95878.63;5007139;28;20038;-70
2021/01/13 02:31:58;;;;;;;13.55;6.85;;;0.90;85.40;;;-1.11;87.15;95882.25;5003234;28;20058;-70
2021/01/13 02:34:30;;;;;;;14.20;7.35;;;0.90;85.60;;;-1.16;87.08;95868.88;5001964;28;20077;-70
2021/01/13 02:37:35;;;;;;;10.88;7.18;;;0.70;85.80;;;-1.15;87.36;95886.00;5005697;28;20057;-70
2021/01/13 02:40:21;;;;;;;14.02;7.05;;;0.90;85.70;;;-1.15;87.16;95886.00;5007606;28;20042;-70
2021/01/13 02:43:01;;;;;;;14.20;7.00;;;0.90;85.50;;;-1.13;87.27;95881.53;5003871;28;20038;-71
2021/01/13 02:45:27;;;;;;;12.60;6.78;;;0.90;85.60;;;-1.11;86.66;95882.25;5009452;28;20030;-70
2021/01/13 02:48:05;;;;;;;16.30;7.78;;;0.90;85.40;;;-1.09;86.93;95890.69;5011262;28;20088;-70
2021/01/13 02:50:33;;;;;;;14.18;6.93;;;0.90;85.40;;;-1.07;86.62;95881.88;5010770;28;20070;-70
2021/01/13 02:53:13;;;;;;;11.52;7.18;;;1.00;85.30;;;-1.04;87.09;95884.22;5010457;28;20034;-70
2021/01/13 02:55:48;;;;;;;12.40;7.13;;;1.00;85.10;;;-0.99;86.92;95876.09;5010999;28;20370;-70
2021/01/13 02:58:24;;;;;;;18.20;7.00;;;1.10;85.10;;;-0.98;86.80;95882.91;5010264;28;20081;-70
2021/01/13 03:00:51;;;;;;;20.55;6.80;;;1.10;84.80;;;-0.96;86.40;95881.00;5010216;28;20435;-69
2021/01/13 03:03:17;;;;;;;12.27;6.90;;;1.10;84.80;;;-0.96;86.47;95878.44;5010565;28;20457;-71
2021/01/13 03:05:45;;;;;;;13.25;7.10;;;1.10;84.90;;;-0.95;86.65;95877.50;5010642;28;20441;-70
2021/01/13 03:08:11;;;;;;;11.15;6.72;;;1.10;84.90;;;-0.94;86.35;95885.09;4990891;28;20073;-70
2021/01/13 03:10:37;;;;;;;10.20;6.55;;;1.10;84.90;;;-0.92;86.53;95883.22;4976728;28;20088;-70
2021/01/13 03:13:05;;;;;;;11.52;6.25;;;1.10;84.70;;;-0.89;86.55;95886.53;5008612;28;20117;-70
2021/01/13 03:15:31;;;;;;;11.50;6.40;;;1.10;84.60;;;-0.88;86.37;95886.41;5010286;28;20125;-70
2021/01/13 03:18:20;;;;;;;12.38;6.00;;;1.10;84.80;;;-0.87;86.72;95888.03;5009142;28;20524;-70
2021/01/13 03:21:04;;;;;;;14.52;6.70;;;1.10;84.80;;;-0.84;86.49;95892.13;5010404;28;20045;-70
2021/01/13 03:23:52;;;;;;;11.20;6.00;;;1.10;84.50;;;-0.83;86.69;95881.69;5008934;28;20115;-70
2021/01/13 03:26:22;;;;;;;11.68;6.13;;;1.10;84.60;;;-0.87;86.45;95872.53;4989536;28;20038;-70
2021/01/13 03:28:47;;;;;;;11.52;6.20;;;1.10;84.60;;;-0.80;86.34;95878.03;4974889;28;20041;-71
2021/01/13 03:31:19;;;;;;;14.32;6.55;;;1.10;84.50;;;-0.79;86.09;95877.91;4973227;28;20030;-70
2021/01/13 03:34:06;;;;;;;;;;;1.10;84.70;;;-0.80;86.40;95881.44;4991037;28;20038;-70
2021/01/13 03:36:58;;;;;;;13.05;6.45;;;1.10;84.70;;;-0.79;86.27;95888.22;5010896;28;19917;-70
2021/01/13 03:39:24;;;;;;;12.77;6.68;;;1.10;84.60;;;-0.79;85.88;95893.38;5010155;28;20053;-70
2021/01/13 03:41:53;;;;;;;19.33;6.63;;;1.10;84.80;;;-0.78;86.13;95892.44;5009323;28;20190;-70
2021/01/13 03:44:29;;;;;;;11.55;6.32;;;1.20;84.40;;;-0.77;86.10;95886.34;5010062;28;20069;-70
2021/01/13 03:46:56;;;;;;;16.70;7.35;;;1.20;84.20;;;-0.77;85.85;95891.50;5010192;28;20105;-71
2021/01/13 03:49:28;;;;;;;13.45;6.88;;;1.10;84.30;;;-0.77;86.19;95888.91;5008086;28;20034;-70
2021/01/13 03:52:01;;;;;;;12.38;6.88;;;1.20;84.40;;;-0.80;86.16;95886.59;4976541;28;20038;-70
2021/01/13 03:54:27;;;;;;;12.25;6.97;;;1.00;84.50;;;-0.80;86.08;95889.16;5008828;28;20037;-70
2021/01/13 03:57:03;;;;;;;13.45;7.43;;;1.10;84.30;;;-0.80;85.97;95896.91;4976283;28;20061;-70
2021/01/13 04:00:07;;;;;;;18.55;7.50;;;1.20;84.40;;;-0.78;85.96;95909.69;5009008;28;20038;-70
2021/01/13 04:02:54;;;;;;;12.40;6.68;;;1.20;83.90;;;-0.80;86.12;95904.66;5010559;28;20038;-70
2021/01/13 04:05:23;;;;;;;17.95;7.38;;;1.10;84.20;;;-0.82;86.02;95897.97;4993943;28;20033;-70
2021/01/13 04:07:50;;;;;;;10.10;6.47;;;1.20;84.20;;;-0.81;85.81;95900.44;4988845;28;20513;-70
2021/01/13 04:10:16;;;;;;;14.98;7.05;;;1.10;84.00;;;-0.84;85.69;95900.69;4996460;28;20061;-71
2021/01/13 04:12:51;;;;;;;12.80;6.60;;;1.20;83.90;;;-0.81;85.99;95908.19;5008987;28;20543;-70
2021/01/13 04:15:19;;;;;;;19.02;7.65;;;1.20;84.10;;;-0.81;85.70;95915.13;5009597;28;20414;-70
2021/01/13 04:17:46;;;;;;;14.20;6.80;;;1.20;83.80;;;-0.81;85.67;95910.78;5008809;28;20041;-70
2021/01/13 04:20:12;;;;;;;13.60;7.18;;;1.20;84.00;;;-0.80;85.79;95912.41;5009795;28;20022;-70
2021/01/13 04:22:38;;;;;;;15.75;7.55;;;1.20;83.60;;;-0.81;85.73;95909.94;5010116;28;20117;-70
2021/01/13 04:25:05;;;;;;;14.05;7.68;;;1.10;83.80;;;-0.82;85.71;95909.13;5008975;28;20038;-70
2021/01/13 04:27:31;;;;;;;15.13;7.93;;;1.10;84.00;;;-0.82;85.74;95910.91;5009583;28;20084;-70
2021/01/13 04:29:57;;;;;;;14.32;8.05;;;1.10;84.00;;;-0.83;85.63;95902.34;5005516;28;20042;-70
2021/01/13 04:32:23;;;;;;;18.20;8.02;;;1.10;84.00;;;-0.84;85.66;95905.84;5003474;28;20716;-70
2021/01/13 04:34:48;;;;;;;14.80;7.72;;;1.10;84.20;;;-0.85;85.70;95908.56;4988242;28;20043;-70
2021/01/13 04:37:14;;;;;;;16.25;7.72;;;1.10;84.20;;;-0.90;85.67;95900.38;4988376;28;20068;-70
2021/01/13 04:39:40;;;;;;;19.15;8.05;;;1.20;84.00;;;-0.87;85.62;95911.28;5006820;28;20065;-70
2021/01/13 04:42:13;;;;;;;17.08;8.38;;;1.10;83.80;;;-0.89;85.93;95918.31;5008349;28;20413;-70
2021/01/13 04:45:02;;;;;;;17.60;8.93;;;1.10;84.00;;;-0.91;85.92;95915.03;5000180;28;20108;-70
2021/01/13 04:47:49;;;;;;;16.35;8.57;;;1.10;84.10;;;-0.94;86.38;95925.59;5007907;28;20030;-70
2021/01/13 04:50:19;;;;;;;19.95;8.52;;;1.10;84.20;;;-0.96;85.69;95922.31;4996970;28;20054;-70
2021/01/13 04:52:49;;;;;;;15.60;8.10;;;1.10;84.10;;;-0.96;85.66;95930.06;4991879;28;20593;-70
2021/01/13 04:55:23;;;;;;;20.10;8.25;;;1.10;84.20;;;-0.98;86.09;95921.63;5007588;28;20045;-70
2021/01/13 04:58:46;;;;;;;15.05;8.25;;;1.00;84.30;;;-1.00;86.23;95919.16;5009308;28;20506;-70
2021/01/13 05:01:43;;;;;;;14.43;8.10;;;1.10;84.30;;;-1.02;86.12;95925.41;4973124;28;20097;-70
2021/01/13 05:04:33;;;;;;;20.67;8.95;;;0.90;84.30;;;-1.03;86.37;95939.25;4998970;28;20030;-70
2021/01/13 05:07:13;;;;;;;15.30;7.85;;;1.00;84.30;;;-1.04;86.51;95919.53;4993116;28;20026;-70
2021/01/13 05:10:14;;;;;;;19.52;8.50;;;1.00;84.30;;;-1.06;86.13;95932.56;5008930;28;20128;-70
2021/01/13 05:12:59;;;;;;;14.80;8.45;;;0.90;84.30;;;-1.07;86.35;95945.59;4989958;28;20037;-70
2021/01/13 05:15:30;;;;;;;19.30;9.02;;;0.90;84.50;;;-1.09;85.73;95947.47;5006729;28;20049;-70
2021/01/13 05:18:14;;;;;;;19.05;8.25;;;1.00;84.30;;;-1.11;86.16;95954.53;5009198;28;20034;-70
2021/01/13 05:20:43;;;;;;;16.45;8.40;;;0.90;84.20;;;-1.11;85.78;95960.50;5009530;28;20579;-70
2021/01/13 05:23:11;;;;;;;14.30;8.85;;;0.90;84.20;;;-1.12;85.59;95961.47;5008709;28;20213;-70
2021/01/13 05:25:36;;;;;;;15.43;8.15;;;1.00;84.10;;;-1.11;85.65;95965.69;5007340;28;20049;-70
2021/01/13 05:28:07;;;;;;;21.23;9.20;;;0.90;84.00;;;-1.12;86.17;95965.78;5008887;28;20034;-71
2021/01/13 05:30:35;;;;;;;17.50;8.85;;;1.00;84.00;;;-1.13;86.18;95974.44;5009073;28;20068;-70
2021/01/13 05:33:05;;;;;;;18.58;8.90;;;0.90;84.20;;;-1.13;85.97;95982.19;5008242;28;20038;-70
2021/01/13 05:35:31;;;;;;;20.88;8.35;;;0.90;84.30;;;-1.14;86.00;95980.56;5007528;28;20038;-70
2021/01/13 05:38:15;;;;;;;19.13;8.75;;;0.90;84.50;;;-1.13;86.39;95992.50;5007420;28;20129;-72
2021/01/13 05:40:41;;;;;;;16.35;8.63;;;0.90;84.30;;;-1.11;85.70;95988.09;4992614;28;20116;-70
2021/01/13 05:43:07;;;;;;;17.27;8.70;;;0.90;84.10;;;-1.11;85.84;95980.34;5008406;28;20033;-70
2021/01/13 05:45:37;;;;;;;14.05;7.97;;;1.00;84.10;;;-1.11;85.66;95990.66;5008487;28;20033;-70
2021/01/13 05:48:02;;;;;;;17.55;8.55;;;0.90;83.70;;;-1.12;85.83;95999.34;5007457;28;20405;-72
2021/01/13 05:50:29;;;;;;;15.82;8.18;;;0.90;84.00;;;-1.13;85.69;96003.69;5007781;28;20038;-71
2021/01/13 05:52:55;;;;;;;20.48;9.02;;;0.90;84.00;;;-1.10;85.64;96002.63;5008172;28;20128;-70
2021/01/13 05:55:22;;;;;;;17.17;8.48;;;1.00;83.80;;;-1.10;85.73;96002.63;5008966;28;20041;-70
2021/01/13 05:57:57;;;;;;;16.67;8.07;;;0.90;83.50;;;-1.12;85.49;96007.91;5007169;28;20053;-70
2021/01/13 06:00:24;;;;;;;17.30;8.65;;;0.90;83.50;;;-1.16;85.47;96008.25;5008809;28;20095;-70
2021/01/13 06:02:56;;;;;;;12.93;7.40;;;0.80;83.40;;;-1.19;85.37;96004.16;5006775;28;20524;-71
2021/01/13 06:05:24;;;;;;;16.27;8.38;;;0.80;83.40;;;-1.20;85.13;96014.59;4992012;28;20040;-70
2021/01/13 06:07:51;;;;;;;16.17;8.38;;;0.80;83.20;;;-1.24;85.04;96020.00;5008481;28;20059;-70
2021/01/13 06:10:18;;;;;;;16.02;7.88;;;0.80;83.00;;;-1.24;85.19;96021.75;5007415;28;20052;-71
2021/01/13 06:12:47;;;;;;;14.38;7.43;;;0.80;83.10;;;-1.26;84.95;96018.47;5007738;28;20104;-70
2021/01/13 06:15:14;;;;;;;12.05;7.13;;;0.80;82.90;;;-1.26;85.10;96015.88;5010613;28;20470;-70
2021/01/13 06:17:50;;;;;;;13.32;7.20;;;0.80;82.50;;;-1.28;84.72;96018.59;5012228;28;20042;-70
2021/01/13 06:20:20;;;;;;;14.88;7.80;;;0.70;82.40;;;-1.33;84.94;96012.97;5011304;28;20034;-71
2021/01/13 06:22:48;;;;;;;17.23;7.57;;;0.70;82.40;;;-1.36;84.98;96020.94;5010987;28;20041;-70
2021/01/13 06:25:22;;;;;;;17.13;7.50;;;0.60;82.50;;;-1.40;84.57;96022.09;4995887;28;20030;-70
2021/01/13 06:27:57;;;;;;;17.23;7.90;;;0.60;82.30;;;-1.45;84.64;96021.63;5002699;28;20410;-70
2021/01/13 06:30:30;;;;;;;12.43;7.32;;;0.50;82.60;;;-1.47;84.38;96030.44;5005324;28;20281;-70
2021/01/13 06:33:04;;;;;;;19.05;7.38;;;0.50;82.20;;;-1.54;84.25;96022.34;5011248;28;20150;-68
2021/01/13 06:35:42;;;;;;;15.52;7.53;;;0.50;82.50;;;-1.56;84.01;96026.81;5010059;28;20049;-67
2021/01/13 06:38:23;;;;;;;14.57;7.20;;;0.40;82.00;;;-1.61;84.16;96018.56;5006916;28;20042;-69
2021/01/13 06:41:01;;;;;;;13.43;6.55;;;0.40;82.10;;;-1.64;83.80;96029.13;4993557;28;20457;-70
2021/01/13 06:43:28;;;;;;;12.80;5.90;;;0.40;81.70;;;-1.68;84.21;96025.16;5000118;28;20115;-71
2021/01/13 06:45:54;;;;;;;11.68;6.88;;;0.30;82.00;;;-1.72;84.41;96026.31;4990647;28;20034;-68
2021/01/13 06:48:27;;;;;;;13.43;7.15;;;0.20;81.70;;;-1.77;84.51;96031.81;4990305;28;20034;-71
2021/01/13 06:50:59;;;;;;;14.60;7.22;;;0.20;81.80;;;-1.80;84.40;96028.66;4994238;28;20065;-71
2021/01/13 06:53:32;;;;;;;23.45;8.05;;;0.20;82.00;;;-1.83;84.14;96029.69;5001900;28;20064;-71
2021/01/13 06:56:00;;;;;;;19.23;8.30;;;0.20;82.10;;;-1.91;84.40;96022.53;5008059;28;20065;-72
2021/01/13 06:58:26;;;;;;;19.60;9.07;;;0.20;82.10;;;-1.93;84.33;96021.81;4991802;28;20529;-71
2021/01/13 07:01:01;;;;;;;18.55;8.77;;;0.20;82.40;;;-1.88;84.52;96037.75;4989802;28;20106;-72
2021/01/13 07:03:31;;;;;;;18.02;9.13;;;0.10;82.50;;;-1.89;84.79;96040.47;4993890;28;20104;-72
2021/01/13 07:06:01;;;;;;;21.75;8.98;;;0.20;82.60;;;-1.90;84.69;96038.81;5007319;28;20137;-71
2021/01/13 07:08:27;;;;;;;19.50;9.73;;;0.20;83.00;;;-1.89;85.10;96045.63;4991338;28;20042;-72
2021/01/13 07:11:11;;;;;;;20.92;9.75;;;0.20;82.90;;;-1.89;84.87;96045.63;4990367;28;20041;-72
2021/01/13 07:13:41;;;;;;;19.10;9.15;;;0.20;83.00;;;-1.87;84.68;96046.31;4974268;28;20533;-71
2021/01/13 07:16:07;;;;;;;14.05;8.43;;;0.20;83.00;;;-1.88;85.12;96042.91;4990497;28;20038;-72
2021/01/13 07:18:34;;;;;;;20.17;8.95;;;0.20;83.20;;;-1.88;84.70;96040.34;4991017;28;20026;-71
2021/01/13 07:21:10;;;;;;;19.70;8.85;;;0.30;83.10;;;-1.88;84.88;96048.06;4989045;28;20050;-72
2021/01/13 07:23:36;;;;;;;15.93;8.15;;;0.30;83.00;;;-1.87;85.00;96048.91;4990145;28;20034;-71
2021/01/13 07:26:02;;;;;;;17.50;8.43;;;0.30;83.00;;;-1.89;84.89;96049.00;4989506;28;20037;-71
2021/01/13 07:28:28;;;;;;;24.05;9.85;;;0.30;83.50;;;-1.89;84.79;96051.59;4990724;28;20065;-72
2021/01/13 07:30:54;;;;;;;20.30;9.35;;;0.30;83.20;;;-1.90;85.05;96049.94;4972813;28;20046;-72
2021/01/13 07:33:20;;;;;;;19.38;9.80;;;0.40;83.20;;;-1.91;85.11;96052.63;4991193;28;20506;-71
2021/01/13 07:35:47;;;;;;;22.40;9.48;;;0.20;83.10;;;-1.93;85.22;96039.88;4973598;28;20046;-71
2021/01/13 07:38:18;;;;;;;27.02;13.40;;;0.20;83.40;;;-1.94;85.48;96051.13;4989936;28;20049;-69
2021/01/13 07:41:03;;;;;;;32.15;13.82;;;0.20;83.50;;;-1.94;85.20;96045.97;4988784;28;20628;-70
2021/01/13 07:43:49;;;;;;;23.55;11.45;;;0.20;83.40;;;-1.94;85.55;96037.41;4989908;28;20506;-70
2021/01/13 07:46:32;;;;;;;23.00;10.77;;;0.20;83.30;;;-1.92;85.43;96049.25;4975246;28;20183;-71
2021/01/13 07:49:21;;;;;;;35.67;14.13;;;0.20;83.10;;;-1.90;85.48;96044.78;4990241;28;20042;-71
2021/01/13 07:52:05;;;;;;;38.38;19.65;;;0.30;83.10;;;-1.88;85.87;96037.75;4977601;28;20917;-70
2021/01/13 07:54:31;;;;;;;26.75;11.18;;;0.40;82.80;;;-1.85;84.75;96037.53;4956789;28;20528;-70
2021/01/13 07:56:59;;;;;;;36.88;14.32;;;0.40;82.50;;;-1.81;85.07;96048.47;4988891;28;20026;-70
2021/01/13 07:59:41;;;;;;;32.15;12.73;;;0.50;82.50;;;-1.78;85.05;96052.56;4969493;28;20568;-68
2021/01/13 08:02:53;;;;;;;28.20;12.65;;;0.50;82.10;;;-1.72;85.19;96052.91;4987481;28;20042;-71
2021/01/13 08:06:01;;;;;;;19.58;10.20;;;0.50;82.60;;;-1.64;84.98;96060.06;4988828;28;20035;-67
2021/01/13 08:08:57;;;;;;;20.55;11.30;;;0.60;81.90;;;-1.59;85.16;96063.13;4990405;28;20053;-68
2021/01/13 08:12:03;;;;;;;20.40;9.82;;;0.80;81.50;;;-1.49;84.71;96058.09;4962351;28;20615;-68
2021/01/13 08:14:48;;;;;;;19.15;8.82;;;1.00;81.10;;;-1.40;84.73;96068.53;4990102;28;20045;-69
2021/01/13 08:17:40;;;;;;;19.63;8.85;;;1.10;80.70;;;-1.29;84.53;96073.72;4989120;28;20042;-68
2021/01/13 08:20:42;;;;;;;18.15;8.98;;;1.20;80.20;;;-1.18;84.19;96074.66;4990086;28;20528;-68
2021/01/13 08:25:57;;;;;;;17.80;8.18;;;1.40;79.60;;;-1.04;84.25;96072.66;4969552;28;20058;-68
2021/01/13 08:28:24;;;;;;;21.98;8.93;;;1.40;79.60;;;-0.98;84.48;96073.94;4965416;28;20086;-68
2021/01/13 08:30:50;;;;;;;17.10;7.60;;;1.50;79.50;;;-0.95;84.49;96078.84;4989308;28;20449;-69
2021/01/13 08:33:25;;;;;;;15.77;8.05;;;1.60;79.20;;;-0.88;83.93;96080.03;4988290;28;20096;-67
2021/01/13 08:35:56;;;;;;;18.95;8.15;;;1.60;79.10;;;-0.81;84.03;96081.19;4990228;28;20030;-68
2021/01/13 08:38:23;;;;;;;17.50;7.93;;;1.70;78.70;;;-0.76;84.17;96088.56;4990085;28;20114;-70
2021/01/13 08:40:49;;;;;;;30.95;14.88;;;1.80;78.50;;;-0.66;84.02;96092.94;4989891;28;20022;-68
2021/01/13 08:43:16;;;;;;;18.15;9.43;;;2.00;77.90;;;-0.57;83.89;96093.94;4987658;28;20073;-69
2021/01/13 08:45:49;;;;;;;16.17;8.18;;;2.00;77.50;;;-0.48;83.45;96097.56;4990635;28;20049;-66
2021/01/13 08:48:22;;;;;;;19.42;8.50;;;2.10;77.50;;;-0.38;83.20;96098.50;4988391;28;21532;-67
2021/01/13 08:51:03;;;;;;;17.77;8.77;;;2.30;77.10;;;-0.27;82.61;96103.63;4985836;28;20565;-69
2021/01/13 08:53:29;;;;;;;19.90;9.27;;;2.40;76.40;;;-0.16;83.81;96093.25;4988656;28;20042;-69
2021/01/13 08:55:55;;;;;;;15.82;8.18;;;2.50;75.90;;;-0.09;83.56;96109.91;4989645;28;20037;-68
2021/01/13 08:58:33;;;;;;;16.35;7.90;;;2.50;75.80;;;-0.03;81.49;96093.88;4986141;28;20052;-69
2021/01/13 09:01:08;;;;;;;15.80;7.30;;;2.50;75.70;;;0.05;81.74;96100.22;4976089;28;20558;-69
2021/01/13 09:03:52;;;;;;;15.57;7.53;;;2.50;75.40;;;0.07;81.35;96099.16;4988753;28;20176;-69
2021/01/13 09:06:22;;;;;;;12.43;6.80;;;2.40;75.60;;;0.13;82.28;96103.00;4956364;28;20109;-68
2021/01/13 09:08:50;;;;;;;12.93;7.15;;;2.60;75.40;;;0.19;82.66;96105.06;4988813;28;20535;-68
2021/01/13 09:11:32;;;;;;;15.57;7.38;;;2.70;74.70;;;0.27;81.14;96102.72;4988917;28;20042;-70
2021/01/13 09:14:18;;;;;;;19.63;8.25;;;2.80;75.90;;;0.30;80.29;96100.69;4989619;28;20027;-70
2021/01/13 09:16:53;;;;;;;15.93;8.15;;;2.80;74.40;;;0.43;80.81;96103.06;4970587;28;20042;-69
2021/01/13 09:19:40;;;;;;;16.95;7.57;;;3.00;74.30;;;0.52;79.82;96104.09;4980286;28;20072;-69
2021/01/13 09:22:09;;;;;;;15.18;6.88;;;3.10;73.50;;;0.59;81.62;96100.84;4989058;28;20031;-70
2021/01/13 09:24:42;;;;;;;17.25;6.68;;;3.20;72.70;;;0.73;80.55;96106.66;4988587;28;20030;-69
2021/01/13 09:27:09;;;;;;;12.95;6.95;;;3.50;72.90;;;0.88;81.17;96115.72;4988172;28;20034;-69
2021/01/13 09:29:51;;;;;;;17.90;6.90;;;3.70;70.70;;;0.99;79.73;96110.47;4988357;28;20047;-69
2021/01/13 09:32:19;;;;;;;14.95;6.97;;;3.60;70.80;;;1.05;81.63;96124.66;4986831;28;20169;-68
2021/01/13 09:34:48;;;;;;;17.55;9.52;;;3.80;70.80;;;1.20;81.89;96116.41;4989883;28;20035;-69
2021/01/13 09:37:15;;;;;;;12.52;6.53;;;4.30;69.80;;;1.30;81.36;96125.97;4987021;28;20058;-70
2021/01/13 09:40:00;;;;;;;15.20;7.25;;;4.20;68.90;;;1.41;79.43;96123.31;4987686;28;20046;-74
2021/01/13 09:42:39;;;;;;;16.85;6.72;;;4.20;70.30;;;1.47;78.33;96121.00;4988288;28;20034;-70
2021/01/13 09:45:07;;;;;;;16.75;7.20;;;4.30;69.40;;;1.57;80.97;96127.97;4988138;28;20550;-70
2021/01/13 09:47:33;;;;;;;12.40;6.35;;;4.60;67.50;;;1.67;80.74;96134.84;4987771;28;20528;-68
2021/01/13 09:49:59;;;;;;;12.88;6.47;;;4.90;68.00;;;1.78;80.74;96128.69;4992281;28;20053;-69
2021/01/13 09:52:25;;;;;;;11.95;6.50;;;5.10;66.30;;;1.92;81.16;96132.69;4974786;28;20650;-69
2021/01/13 09:54:52;;;;;;;11.25;6.43;;;5.40;65.20;;;2.02;79.92;96129.13;4991151;28;20034;-73
2021/01/13 09:57:18;;;;;;;11.65;5.85;;;5.40;64.40;;;2.16;80.67;96135.72;4974461;28;20505;-71
2021/01/13 10:00:05;;;;;;;9.82;6.07;;;5.60;62.90;;;2.40;76.68;96127.50;4992040;28;20041;-64
2021/01/13 10:02:30;;;;;;;13.38;6.75;;;6.10;61.80;;;2.63;80.29;96135.81;4989734;28;20493;-65
2021/01/13 10:04:56;;;;;;;20.35;10.68;;;6.40;61.00;;;2.80;79.27;96123.91;4989385;28;20043;-68
2021/01/13 10:07:23;;;;;;;13.68;6.40;;;6.30;59.90;;;2.85;78.79;96122.53;4992303;28;20048;-68
2021/01/13 10:09:49;;;;;;;10.65;5.15;;;6.30;60.00;;;2.95;78.50;96123.31;4975455;28;20043;-70
2021/01/13 10:12:18;;;;;;;9.52;6.13;;;6.70;58.90;;;3.14;76.37;96126.81;4958253;28;20471;-69
2021/01/13 10:14:52;;;;;;;10.07;5.40;;;7.10;57.80;;;3.27;73.92;96119.50;4992324;28;20027;-70
2021/01/13 10:17:27;;;;;;;14.10;6.35;;;7.10;57.20;;;3.44;73.21;96117.94;4990510;28;20099;-67
2021/01/13 10:19:56;;;;;;;13.95;5.78;;;7.50;55.70;;;3.68;75.44;96119.03;4992455;28;20038;-67
2021/01/13 10:22:24;;;;;;;10.35;5.47;;;8.40;53.20;;;3.97;74.58;96116.25;4990263;28;20453;-69
2021/01/13 10:24:51;;;;;;;11.70;4.95;;;9.00;51.00;;;4.17;77.15;96121.31;4984285;28;20069;-69
2021/01/13 10:27:20;;;;;;;7.97;4.88;;;9.10;50.90;;;4.28;74.64;96114.06;4973913;28;20101;-67
2021/01/13 10:29:46;;;;;;;7.32;4.50;;;8.50;51.00;;;4.44;76.56;96115.19;4990788;28;20080;-67
2021/01/13 10:32:12;;;;;;;10.27;5.28;;;8.70;51.80;;;4.58;75.64;96119.88;4990010;28;20053;-68
2021/01/13 10:34:38;;;;;;;10.93;5.07;;;9.20;50.00;;;4.75;74.79;96115.56;4990266;28;20026;-67
2021/01/13 10:37:04;;;;;;;9.05;4.90;;;9.10;48.60;;;4.78;74.86;96116.13;4986009;28;20061;-68
2021/01/13 10:39:30;;;;;;;10.27;4.88;;;8.40;51.10;;;4.72;74.61;96100.25;4991571;28;20034;-68
2021/01/13 10:42:03;;;;;;;9.45;4.60;;;7.60;53.20;;;4.55;74.03;96109.75;4991321;28;20209;-68
2021/01/13 10:44:29;;;;;;;9.90;4.85;;;7.20;54.50;;;4.55;73.81;96104.56;4992059;28;20065;-68
2021/01/13 10:46:59;;;;;;;7.97;3.92;;;9.00;50.00;;;4.53;70.81;96102.09;4974132;28;20534;-72